sensor_id;sensor_type;location;lat;lon;timestamp;temperature;humidity
15707;DHT22;7953;54.302;10.128;2023-12-04T00:01:43;-0.20;99.90
15707;DHT22;7953;54.302;10.128;2023-12-04T00:04:12;-0.20;99.90
15707;DHT22;7953;54.302;10.128;2023-12-04T00:06:40;-0.30;99.90
15707;DHT22;7953;54.302;10.128;2023-12-04T00:09:07;-0.30;99.90
15707;DHT22;7953;54.302;10.128;2023-12-04T00:11:34;-0.30;99.90
15707;DHT22;7953;54.302;10.128;2023-12-04T00:14:00;-0.30;99.90
15707;DHT22;7953;54.302;10.128;2023-12-04T00:16:27;-0.30;99.90
15707;DHT22;7953;54.302;10.128;2023-12-04T00:18:54;-0.30;99.90
15707;DHT22;7953;54.302;10.128;2023-12-04T00:21:22;-0.30;99.90
15707;DHT22;7953;54.302;10.128;2023-12-04T00:23:49;-0.30;99.90
15707;DHT22;7953;54.302;10.128;2023-12-04T00:26:16;-0.30;99.90
15707;DHT22;7953;54.302;10.128;2023-12-04T00:28:43;-0.30;99.90
15707;DHT22;7953;54.302;10.128;2023-12-04T00:31:10;-0.20;99.90
15707;DHT22;7953;54.302;10.128;2023-12-04T00:33:37;-0.30;99.90
15707;DHT22;7953;54.302;10.128;2023-12-04T00:36:04;-0.20;99.90
15707;DHT22;7953;54.302;10.128;2023-12-04T00:38:33;-0.30;99.90
15707;DHT22;7953;54.302;10.128;2023-12-04T00:40:59;-0.30;99.90
15707;DHT22;7953;54.302;10.128;2023-12-04T00:43:26;-0.20;99.90
15707;DHT22;7953;54.302;10.128;2023-12-04T00:45:53;-0.30;99.90
15707;DHT22;7953;54.302;10.128;2023-12-04T00:48:20;-0.40;99.90
15707;DHT22;7953;54.302;10.128;2023-12-04T00:50:47;-0.50;99.90
15707;DHT22;7953;54.302;10.128;2023-12-04T00:53:14;-0.50;99.90
15707;DHT22;7953;54.302;10.128;2023-12-04T00:55:42;-0.60;99.90
15707;DHT22;7953;54.302;10.128;2023-12-04T00:58:09;-0.70;99.90
15707;DHT22;7953;54.302;10.128;2023-12-04T01:00:35;-0.70;99.90
15707;DHT22;7953;54.302;10.128;2023-12-04T01:03:02;-0.70;99.90
15707;DHT22;7953;54.302;10.128;2023-12-04T01:05:29;-0.80;99.90
15707;DHT22;7953;54.302;10.128;2023-12-04T01:07:56;-0.80;99.90
15707;DHT22;7953;54.302;10.128;2023-12-04T01:10:23;-0.80;99.90
15707;DHT22;7953;54.302;10.128;2023-12-04T01:12:51;-0.80;99.90
15707;DHT22;7953;54.302;10.128;2023-12-04T01:15:18;-0.80;99.90
15707;DHT22;7953;54.302;10.128;2023-12-04T01:17:45;-0.80;99.90
15707;DHT22;7953;54.302;10.128;2023-12-04T01:20:12;-0.90;99.90
15707;DHT22;7953;54.302;10.128;2023-12-04T01:22:39;-0.90;99.90
15707;DHT22;7953;54.302;10.128;2023-12-04T01:25:07;-0.90;99.90
15707;DHT22;7953;54.302;10.128;2023-12-04T01:27:34;-0.90;99.90
15707;DHT22;7953;54.302;10.128;2023-12-04T01:30:05;-0.90;99.90
15707;DHT22;7953;54.302;10.128;2023-12-04T01:32:33;-0.90;99.90
15707;DHT22;7953;54.302;10.128;2023-12-04T01:35:00;-1.00;99.90
15707;DHT22;7953;54.302;10.128;2023-12-04T01:37:27;-0.80;99.90
15707;DHT22;7953;54.302;10.128;2023-12-04T01:39:54;-0.80;99.90
15707;DHT22;7953;54.302;10.128;2023-12-04T01:42:21;-0.90;99.90
15707;DHT22;7953;54.302;10.128;2023-12-04T01:44:48;-0.90;99.90
15707;DHT22;7953;54.302;10.128;2023-12-04T01:47:17;-0.80;99.90
15707;DHT22;7953;54.302;10.128;2023-12-04T01:49:45;-0.90;99.90
15707;DHT22;7953;54.302;10.128;2023-12-04T01:52:12;-0.90;99.90
15707;DHT22;7953;54.302;10.128;2023-12-04T01:54:39;-0.90;99.90
15707;DHT22;7953;54.302;10.128;2023-12-04T01:57:06;-0.90;99.90
15707;DHT22;7953;54.302;10.128;2023-12-04T01:59:33;-1.00;99.90
15707;DHT22;7953;54.302;10.128;2023-12-04T02:02:01;-1.10;99.90
15707;DHT22;7953;54.302;10.128;2023-12-04T02:04:31;-1.00;99.90
15707;DHT22;7953;54.302;10.128;2023-12-04T02:06:58;-1.10;99.90
15707;DHT22;7953;54.302;10.128;2023-12-04T02:09:25;-1.10;99.90
15707;DHT22;7953;54.302;10.128;2023-12-04T02:11:52;-1.10;99.90
15707;DHT22;7953;54.302;10.128;2023-12-04T02:14:19;-1.10;99.90
15707;DHT22;7953;54.302;10.128;2023-12-04T02:16:46;-1.20;99.90
15707;DHT22;7953;54.302;10.128;2023-12-04T02:19:15;-1.10;99.90
15707;DHT22;7953;54.302;10.128;2023-12-04T02:21:43;-1.20;99.90
15707;DHT22;7953;54.302;10.128;2023-12-04T02:24:11;-1.20;99.90
15707;DHT22;7953;54.302;10.128;2023-12-04T02:26:42;-1.30;99.90
15707;DHT22;7953;54.302;10.128;2023-12-04T02:29:15;-1.30;99.90
15707;DHT22;7953;54.302;10.128;2023-12-04T02:31:46;-1.40;99.90
15707;DHT22;7953;54.302;10.128;2023-12-04T02:34:14;-1.30;99.90
15707;DHT22;7953;54.302;10.128;2023-12-04T02:36:42;-1.40;99.90
15707;DHT22;7953;54.302;10.128;2023-12-04T02:39:11;-1.50;99.90
15707;DHT22;7953;54.302;10.128;2023-12-04T02:41:38;-1.50;99.90
15707;DHT22;7953;54.302;10.128;2023-12-04T02:44:05;-1.60;99.90
15707;DHT22;7953;54.302;10.128;2023-12-04T02:46:32;-1.60;99.90
15707;DHT22;7953;54.302;10.128;2023-12-04T02:48:59;-1.50;99.90
15707;DHT22;7953;54.302;10.128;2023-12-04T02:51:26;-1.50;99.90
15707;DHT22;7953;54.302;10.128;2023-12-04T02:53:53;-1.60;99.90
15707;DHT22;7953;54.302;10.128;2023-12-04T02:56:21;-1.60;99.90
15707;DHT22;7953;54.302;10.128;2023-12-04T02:58:48;-1.70;99.90
15707;DHT22;7953;54.302;10.128;2023-12-04T03:01:14;-1.70;99.90
15707;DHT22;7953;54.302;10.128;2023-12-04T03:03:41;-1.70;99.90
15707;DHT22;7953;54.302;10.128;2023-12-04T03:06:08;-1.70;99.90
15707;DHT22;7953;54.302;10.128;2023-12-04T03:08:35;-1.80;99.90
15707;DHT22;7953;54.302;10.128;2023-12-04T03:11:03;-1.80;99.90
15707;DHT22;7953;54.302;10.128;2023-12-04T03:13:31;-1.80;99.90
15707;DHT22;7953;54.302;10.128;2023-12-04T03:15:58;-1.80;99.90
15707;DHT22;7953;54.302;10.128;2023-12-04T03:18:25;-1.90;99.90
15707;DHT22;7953;54.302;10.128;2023-12-04T03:20:54;-1.90;99.90
15707;DHT22;7953;54.302;10.128;2023-12-04T03:23:21;-1.90;99.90
15707;DHT22;7953;54.302;10.128;2023-12-04T03:25:48;-1.90;99.90
15707;DHT22;7953;54.302;10.128;2023-12-04T03:28:14;-1.90;99.90
15707;DHT22;7953;54.302;10.128;2023-12-04T03:30:43;-1.90;99.90
15707;DHT22;7953;54.302;10.128;2023-12-04T03:33:11;-1.90;99.90
15707;DHT22;7953;54.302;10.128;2023-12-04T03:35:37;-1.90;99.90
15707;DHT22;7953;54.302;10.128;2023-12-04T03:38:04;-1.90;99.90
15707;DHT22;7953;54.302;10.128;2023-12-04T03:40:31;-2.00;99.90
15707;DHT22;7953;54.302;10.128;2023-12-04T03:42:58;-2.00;99.90
15707;DHT22;7953;54.302;10.128;2023-12-04T03:45:25;-2.00;99.90
15707;DHT22;7953;54.302;10.128;2023-12-04T03:47:53;-2.10;99.90
15707;DHT22;7953;54.302;10.128;2023-12-04T03:50:20;-2.10;99.90
15707;DHT22;7953;54.302;10.128;2023-12-04T03:52:47;-2.20;99.90
15707;DHT22;7953;54.302;10.128;2023-12-04T03:55:14;-2.20;99.90
15707;DHT22;7953;54.302;10.128;2023-12-04T03:57:41;-2.20;99.90
15707;DHT22;7953;54.302;10.128;2023-12-04T04:00:10;-2.20;99.90
15707;DHT22;7953;54.302;10.128;2023-12-04T04:02:39;-2.20;99.90
15707;DHT22;7953;54.302;10.128;2023-12-04T04:05:07;-2.20;99.90
15707;DHT22;7953;54.302;10.128;2023-12-04T04:07:34;-2.20;99.90
15707;DHT22;7953;54.302;10.128;2023-12-04T04:10:01;-2.30;99.90
15707;DHT22;7953;54.302;10.128;2023-12-04T04:12:29;-2.30;99.90
15707;DHT22;7953;54.302;10.128;2023-12-04T04:14:56;-2.30;99.90
15707;DHT22;7953;54.302;10.128;2023-12-04T04:17:23;-2.20;99.90
15707;DHT22;7953;54.302;10.128;2023-12-04T04:19:51;-2.20;99.90
15707;DHT22;7953;54.302;10.128;2023-12-04T04:22:19;-2.30;99.90
15707;DHT22;7953;54.302;10.128;2023-12-04T04:24:46;-2.30;99.90
15707;DHT22;7953;54.302;10.128;2023-12-04T04:27:13;-2.20;99.90
15707;DHT22;7953;54.302;10.128;2023-12-04T04:29:40;-2.30;99.90
15707;DHT22;7953;54.302;10.128;2023-12-04T04:32:07;-2.30;99.90
15707;DHT22;7953;54.302;10.128;2023-12-04T04:34:34;-2.30;99.90
15707;DHT22;7953;54.302;10.128;2023-12-04T04:37:01;-2.30;99.90
15707;DHT22;7953;54.302;10.128;2023-12-04T04:39:29;-2.30;99.90
15707;DHT22;7953;54.302;10.128;2023-12-04T04:41:56;-2.40;99.90
15707;DHT22;7953;54.302;10.128;2023-12-04T04:44:22;-2.50;99.90
15707;DHT22;7953;54.302;10.128;2023-12-04T04:46:49;-2.50;99.90
15707;DHT22;7953;54.302;10.128;2023-12-04T04:49:16;-2.50;99.90
15707;DHT22;7953;54.302;10.128;2023-12-04T04:51:43;-2.50;99.90
15707;DHT22;7953;54.302;10.128;2023-12-04T04:54:10;-2.50;99.90
15707;DHT22;7953;54.302;10.128;2023-12-04T04:56:38;-2.40;99.90
15707;DHT22;7953;54.302;10.128;2023-12-04T04:59:05;-2.40;99.90
15707;DHT22;7953;54.302;10.128;2023-12-04T05:01:32;-2.40;99.90
15707;DHT22;7953;54.302;10.128;2023-12-04T05:03:58;-2.40;99.90
15707;DHT22;7953;54.302;10.128;2023-12-04T05:06:25;-2.40;99.90
15707;DHT22;7953;54.302;10.128;2023-12-04T05:08:52;-2.40;99.90
15707;DHT22;7953;54.302;10.128;2023-12-04T05:11:19;-2.40;99.90
15707;DHT22;7953;54.302;10.128;2023-12-04T05:13:47;-2.40;99.90
15707;DHT22;7953;54.302;10.128;2023-12-04T05:16:14;-2.40;99.90
15707;DHT22;7953;54.302;10.128;2023-12-04T05:18:41;-2.40;99.90
15707;DHT22;7953;54.302;10.128;2023-12-04T05:21:08;-2.40;99.90
15707;DHT22;7953;54.302;10.128;2023-12-04T05:23:36;-2.40;99.90
15707;DHT22;7953;54.302;10.128;2023-12-04T05:26:03;-2.50;99.90
15707;DHT22;7953;54.302;10.128;2023-12-04T05:28:30;-2.50;99.90
15707;DHT22;7953;54.302;10.128;2023-12-04T05:30:58;-2.50;99.90
15707;DHT22;7953;54.302;10.128;2023-12-04T05:33:25;-2.60;99.90
15707;DHT22;7953;54.302;10.128;2023-12-04T05:35:53;-2.60;99.90
15707;DHT22;7953;54.302;10.128;2023-12-04T05:38:19;-2.60;99.90
15707;DHT22;7953;54.302;10.128;2023-12-04T05:40:46;-2.70;99.90
15707;DHT22;7953;54.302;10.128;2023-12-04T05:43:14;-2.70;99.90
15707;DHT22;7953;54.302;10.128;2023-12-04T05:45:41;-2.70;99.90
15707;DHT22;7953;54.302;10.128;2023-12-04T05:48:09;-2.80;99.90
15707;DHT22;7953;54.302;10.128;2023-12-04T05:50:36;-2.80;99.90
15707;DHT22;7953;54.302;10.128;2023-12-04T05:53:03;-2.90;99.90
15707;DHT22;7953;54.302;10.128;2023-12-04T05:55:29;-2.80;99.90
15707;DHT22;7953;54.302;10.128;2023-12-04T05:57:56;-2.90;99.90
15707;DHT22;7953;54.302;10.128;2023-12-04T06:00:23;-2.90;99.90
15707;DHT22;7953;54.302;10.128;2023-12-04T06:02:50;-2.90;99.90
15707;DHT22;7953;54.302;10.128;2023-12-04T06:05:18;-2.80;99.90
15707;DHT22;7953;54.302;10.128;2023-12-04T06:07:45;-2.70;99.90
15707;DHT22;7953;54.302;10.128;2023-12-04T06:10:12;-2.70;99.90
15707;DHT22;7953;54.302;10.128;2023-12-04T06:12:39;-2.60;99.90
15707;DHT22;7953;54.302;10.128;2023-12-04T06:15:07;-2.60;99.90
15707;DHT22;7953;54.302;10.128;2023-12-04T06:17:34;-2.50;99.90
15707;DHT22;7953;54.302;10.128;2023-12-04T06:20:01;-2.40;99.90
15707;DHT22;7953;54.302;10.128;2023-12-04T06:22:29;-2.30;99.90
15707;DHT22;7953;54.302;10.128;2023-12-04T06:24:57;-2.30;99.90
15707;DHT22;7953;54.302;10.128;2023-12-04T06:27:24;-2.20;99.90
15707;DHT22;7953;54.302;10.128;2023-12-04T06:29:52;-2.20;99.90
15707;DHT22;7953;54.302;10.128;2023-12-04T06:32:19;-2.10;99.90
15707;DHT22;7953;54.302;10.128;2023-12-04T06:34:47;-2.10;99.90
15707;DHT22;7953;54.302;10.128;2023-12-04T06:37:14;-2.10;99.90
15707;DHT22;7953;54.302;10.128;2023-12-04T06:39:45;-2.20;99.90
15707;DHT22;7953;54.302;10.128;2023-12-04T06:42:15;-2.10;99.90
15707;DHT22;7953;54.302;10.128;2023-12-04T06:44:42;-2.10;99.90
15707;DHT22;7953;54.302;10.128;2023-12-04T06:47:09;-2.10;99.90
15707;DHT22;7953;54.302;10.128;2023-12-04T06:49:38;-2.00;99.90
15707;DHT22;7953;54.302;10.128;2023-12-04T06:52:05;-2.00;99.90
15707;DHT22;7953;54.302;10.128;2023-12-04T06:54:32;-2.00;99.90
15707;DHT22;7953;54.302;10.128;2023-12-04T06:57:00;-2.00;99.90
15707;DHT22;7953;54.302;10.128;2023-12-04T06:59:27;-2.00;99.90
15707;DHT22;7953;54.302;10.128;2023-12-04T07:01:54;-2.00;99.90
15707;DHT22;7953;54.302;10.128;2023-12-04T07:04:21;-2.10;99.90
15707;DHT22;7953;54.302;10.128;2023-12-04T07:06:48;-2.10;99.90
15707;DHT22;7953;54.302;10.128;2023-12-04T07:09:15;-2.00;99.90
15707;DHT22;7953;54.302;10.128;2023-12-04T07:11:43;-2.10;99.90
15707;DHT22;7953;54.302;10.128;2023-12-04T07:14:11;-2.00;99.90
15707;DHT22;7953;54.302;10.128;2023-12-04T07:16:39;-2.00;99.90
15707;DHT22;7953;54.302;10.128;2023-12-04T07:19:07;-2.00;99.90
15707;DHT22;7953;54.302;10.128;2023-12-04T07:21:35;-2.00;99.90
15707;DHT22;7953;54.302;10.128;2023-12-04T07:24:02;-2.10;99.90
15707;DHT22;7953;54.302;10.128;2023-12-04T07:26:30;-2.00;99.90
15707;DHT22;7953;54.302;10.128;2023-12-04T07:28:56;-2.10;99.90
15707;DHT22;7953;54.302;10.128;2023-12-04T07:31:25;-2.10;99.90
15707;DHT22;7953;54.302;10.128;2023-12-04T07:33:52;-2.10;99.90
15707;DHT22;7953;54.302;10.128;2023-12-04T07:36:19;-2.10;99.90
15707;DHT22;7953;54.302;10.128;2023-12-04T07:38:46;-2.00;99.90
15707;DHT22;7953;54.302;10.128;2023-12-04T07:41:13;-2.00;99.90
15707;DHT22;7953;54.302;10.128;2023-12-04T07:43:40;-2.00;99.90
15707;DHT22;7953;54.302;10.128;2023-12-04T07:46:09;-2.00;99.90
15707;DHT22;7953;54.302;10.128;2023-12-04T07:48:38;-2.00;99.90
15707;DHT22;7953;54.302;10.128;2023-12-04T07:51:05;-1.90;99.90
15707;DHT22;7953;54.302;10.128;2023-12-04T07:53:32;-1.90;99.90
15707;DHT22;7953;54.302;10.128;2023-12-04T07:56:01;-1.90;99.90
15707;DHT22;7953;54.302;10.128;2023-12-04T07:58:29;-1.80;99.90
15707;DHT22;7953;54.302;10.128;2023-12-04T08:00:56;-1.80;99.90
15707;DHT22;7953;54.302;10.128;2023-12-04T08:03:23;-1.80;99.90
15707;DHT22;7953;54.302;10.128;2023-12-04T08:05:52;-1.80;99.90
15707;DHT22;7953;54.302;10.128;2023-12-04T08:08:19;-1.70;99.90
15707;DHT22;7953;54.302;10.128;2023-12-04T08:10:47;-1.70;99.90
15707;DHT22;7953;54.302;10.128;2023-12-04T08:13:13;-1.70;99.90
15707;DHT22;7953;54.302;10.128;2023-12-04T08:15:41;-1.70;99.90
15707;DHT22;7953;54.302;10.128;2023-12-04T08:18:08;-1.60;99.90
15707;DHT22;7953;54.302;10.128;2023-12-04T08:20:34;-1.60;99.90
15707;DHT22;7953;54.302;10.128;2023-12-04T08:23:03;-1.60;99.90
15707;DHT22;7953;54.302;10.128;2023-12-04T08:25:29;-1.60;99.90
15707;DHT22;7953;54.302;10.128;2023-12-04T08:27:58;-1.50;99.90
15707;DHT22;7953;54.302;10.128;2023-12-04T08:30:25;-1.50;99.90
15707;DHT22;7953;54.302;10.128;2023-12-04T08:32:53;-1.40;99.90
15707;DHT22;7953;54.302;10.128;2023-12-04T08:35:20;-1.40;99.90
15707;DHT22;7953;54.302;10.128;2023-12-04T08:37:47;-1.40;99.90
15707;DHT22;7953;54.302;10.128;2023-12-04T08:40:16;-1.40;99.90
15707;DHT22;7953;54.302;10.128;2023-12-04T08:42:43;-1.40;99.90
15707;DHT22;7953;54.302;10.128;2023-12-04T08:45:10;-1.40;99.90
15707;DHT22;7953;54.302;10.128;2023-12-04T08:47:36;-1.40;99.90
15707;DHT22;7953;54.302;10.128;2023-12-04T08:50:04;-1.30;99.90
15707;DHT22;7953;54.302;10.128;2023-12-04T08:52:31;-1.20;99.90
15707;DHT22;7953;54.302;10.128;2023-12-04T08:54:59;-1.20;99.90
15707;DHT22;7953;54.302;10.128;2023-12-04T08:57:27;-1.20;99.90
15707;DHT22;7953;54.302;10.128;2023-12-04T08:59:54;-1.20;99.90
15707;DHT22;7953;54.302;10.128;2023-12-04T09:02:20;-1.10;99.90
15707;DHT22;7953;54.302;10.128;2023-12-04T09:04:47;-1.20;99.90
15707;DHT22;7953;54.302;10.128;2023-12-04T09:07:14;-1.20;99.90
15707;DHT22;7953;54.302;10.128;2023-12-04T09:09:41;-1.10;99.90
15707;DHT22;7953;54.302;10.128;2023-12-04T09:12:09;-1.10;99.90
15707;DHT22;7953;54.302;10.128;2023-12-04T09:14:37;-1.00;99.90
15707;DHT22;7953;54.302;10.128;2023-12-04T09:17:04;-0.90;99.90
15707;DHT22;7953;54.302;10.128;2023-12-04T09:19:31;-1.00;99.90
15707;DHT22;7953;54.302;10.128;2023-12-04T09:21:58;-1.00;99.90
15707;DHT22;7953;54.302;10.128;2023-12-04T09:24:25;-1.00;99.90
15707;DHT22;7953;54.302;10.128;2023-12-04T09:26:53;-0.90;99.90
15707;DHT22;7953;54.302;10.128;2023-12-04T09:29:20;-0.90;99.90
15707;DHT22;7953;54.302;10.128;2023-12-04T09:31:51;-0.90;99.90
15707;DHT22;7953;54.302;10.128;2023-12-04T09:34:18;-0.90;99.90
15707;DHT22;7953;54.302;10.128;2023-12-04T09:36:45;-0.80;99.90
15707;DHT22;7953;54.302;10.128;2023-12-04T09:39:13;-0.80;99.90
15707;DHT22;7953;54.302;10.128;2023-12-04T09:41:42;-0.80;99.90
15707;DHT22;7953;54.302;10.128;2023-12-04T09:44:09;-0.60;99.90
15707;DHT22;7953;54.302;10.128;2023-12-04T09:46:36;-0.60;99.90
15707;DHT22;7953;54.302;10.128;2023-12-04T09:49:06;-0.70;99.90
15707;DHT22;7953;54.302;10.128;2023-12-04T09:51:33;-0.60;99.90
15707;DHT22;7953;54.302;10.128;2023-12-04T09:54:03;-0.60;99.90
15707;DHT22;7953;54.302;10.128;2023-12-04T09:56:31;-0.60;99.90
15707;DHT22;7953;54.302;10.128;2023-12-04T09:59:00;-0.60;99.90
15707;DHT22;7953;54.302;10.128;2023-12-04T10:01:28;-0.60;99.90
15707;DHT22;7953;54.302;10.128;2023-12-04T10:03:57;-0.60;99.90
15707;DHT22;7953;54.302;10.128;2023-12-04T10:06:26;-0.50;99.90
15707;DHT22;7953;54.302;10.128;2023-12-04T10:08:55;-0.50;99.90
15707;DHT22;7953;54.302;10.128;2023-12-04T10:11:23;-0.50;99.90
15707;DHT22;7953;54.302;10.128;2023-12-04T10:13:50;-0.50;99.90
15707;DHT22;7953;54.302;10.128;2023-12-04T10:16:32;-0.40;99.90
15707;DHT22;7953;54.302;10.128;2023-12-04T10:19:14;-0.40;99.90
15707;DHT22;7953;54.302;10.128;2023-12-04T10:21:44;-0.40;99.90
15707;DHT22;7953;54.302;10.128;2023-12-04T10:24:12;-0.30;99.90
15707;DHT22;7953;54.302;10.128;2023-12-04T10:26:49;-0.30;99.90
15707;DHT22;7953;54.302;10.128;2023-12-04T10:29:18;-0.30;99.90
15707;DHT22;7953;54.302;10.128;2023-12-04T10:31:45;-0.20;99.90
15707;DHT22;7953;54.302;10.128;2023-12-04T10:34:13;-0.20;99.90
15707;DHT22;7953;54.302;10.128;2023-12-04T10:36:40;-0.10;99.90
15707;DHT22;7953;54.302;10.128;2023-12-04T10:39:08;-0.10;99.90
15707;DHT22;7953;54.302;10.128;2023-12-04T10:41:38;0.00;99.90
15707;DHT22;7953;54.302;10.128;2023-12-04T10:44:05;0.00;99.90
15707;DHT22;7953;54.302;10.128;2023-12-04T10:46:32;0.00;99.90
15707;DHT22;7953;54.302;10.128;2023-12-04T10:49:02;0.00;99.90
15707;DHT22;7953;54.302;10.128;2023-12-04T10:51:30;0.00;99.90
15707;DHT22;7953;54.302;10.128;2023-12-04T10:53:57;0.00;99.90
15707;DHT22;7953;54.302;10.128;2023-12-04T10:56:30;0.00;99.90
15707;DHT22;7953;54.302;10.128;2023-12-04T10:58:58;0.10;99.90
15707;DHT22;7953;54.302;10.128;2023-12-04T11:01:27;0.10;99.90
15707;DHT22;7953;54.302;10.128;2023-12-04T11:03:56;0.10;99.90
15707;DHT22;7953;54.302;10.128;2023-12-04T11:06:25;0.10;99.90
15707;DHT22;7953;54.302;10.128;2023-12-04T11:08:56;0.10;99.90
15707;DHT22;7953;54.302;10.128;2023-12-04T11:11:30;0.10;99.90
15707;DHT22;7953;54.302;10.128;2023-12-04T11:14:02;0.20;99.90
15707;DHT22;7953;54.302;10.128;2023-12-04T11:16:34;0.20;99.90
15707;DHT22;7953;54.302;10.128;2023-12-04T11:19:06;0.20;99.90
15707;DHT22;7953;54.302;10.128;2023-12-04T11:21:39;0.30;99.90
15707;DHT22;7953;54.302;10.128;2023-12-04T11:24:07;0.20;99.90
15707;DHT22;7953;54.302;10.128;2023-12-04T11:26:36;0.30;99.90
15707;DHT22;7953;54.302;10.128;2023-12-04T11:29:03;0.30;99.90
15707;DHT22;7953;54.302;10.128;2023-12-04T11:31:31;0.30;99.90
15707;DHT22;7953;54.302;10.128;2023-12-04T11:34:02;0.30;99.90
15707;DHT22;7953;54.302;10.128;2023-12-04T11:36:29;0.30;99.90
15707;DHT22;7953;54.302;10.128;2023-12-04T11:38:56;0.30;99.90
15707;DHT22;7953;54.302;10.128;2023-12-04T11:41:24;0.40;99.90
15707;DHT22;7953;54.302;10.128;2023-12-04T11:43:55;0.40;99.90
15707;DHT22;7953;54.302;10.128;2023-12-04T11:46:23;0.40;99.90
15707;DHT22;7953;54.302;10.128;2023-12-04T11:48:51;0.30;99.90
15707;DHT22;7953;54.302;10.128;2023-12-04T11:51:46;0.30;99.90
15707;DHT22;7953;54.302;10.128;2023-12-04T11:54:17;0.30;99.90
15707;DHT22;7953;54.302;10.128;2023-12-04T11:56:57;0.40;99.90
15707;DHT22;7953;54.302;10.128;2023-12-04T11:59:26;0.30;99.90
15707;DHT22;7953;54.302;10.128;2023-12-04T12:01:55;0.20;99.90
15707;DHT22;7953;54.302;10.128;2023-12-04T12:04:23;0.20;99.90
15707;DHT22;7953;54.302;10.128;2023-12-04T12:06:50;0.20;99.90
15707;DHT22;7953;54.302;10.128;2023-12-04T12:09:17;0.10;99.90
15707;DHT22;7953;54.302;10.128;2023-12-04T12:11:45;0.20;99.90
15707;DHT22;7953;54.302;10.128;2023-12-04T12:14:12;0.10;99.90
15707;DHT22;7953;54.302;10.128;2023-12-04T12:16:40;0.10;99.90
15707;DHT22;7953;54.302;10.128;2023-12-04T12:19:08;0.20;99.90
15707;DHT22;7953;54.302;10.128;2023-12-04T12:21:36;0.20;99.90
15707;DHT22;7953;54.302;10.128;2023-12-04T12:24:03;0.10;99.90
15707;DHT22;7953;54.302;10.128;2023-12-04T12:26:32;0.10;99.90
15707;DHT22;7953;54.302;10.128;2023-12-04T12:28:58;0.10;99.90
15707;DHT22;7953;54.302;10.128;2023-12-04T12:31:25;0.10;99.90
15707;DHT22;7953;54.302;10.128;2023-12-04T12:33:55;0.00;99.90
15707;DHT22;7953;54.302;10.128;2023-12-04T12:36:22;0.00;99.90
15707;DHT22;7953;54.302;10.128;2023-12-04T12:38:49;0.00;99.90
15707;DHT22;7953;54.302;10.128;2023-12-04T12:41:16;0.00;99.90
15707;DHT22;7953;54.302;10.128;2023-12-04T12:43:43;0.00;99.90
15707;DHT22;7953;54.302;10.128;2023-12-04T12:46:10;0.00;99.90
15707;DHT22;7953;54.302;10.128;2023-12-04T12:48:37;0.00;99.90
15707;DHT22;7953;54.302;10.128;2023-12-04T12:51:07;0.00;99.90
15707;DHT22;7953;54.302;10.128;2023-12-04T12:53:36;0.00;99.90
15707;DHT22;7953;54.302;10.128;2023-12-04T12:56:04;0.00;99.90
15707;DHT22;7953;54.302;10.128;2023-12-04T12:58:33;0.00;99.90
15707;DHT22;7953;54.302;10.128;2023-12-04T13:01:00;0.00;99.90
15707;DHT22;7953;54.302;10.128;2023-12-04T13:03:28;0.00;99.90
15707;DHT22;7953;54.302;10.128;2023-12-04T13:05:56;0.00;99.90
15707;DHT22;7953;54.302;10.128;2023-12-04T13:08:24;0.00;99.90
15707;DHT22;7953;54.302;10.128;2023-12-04T13:10:51;-0.10;99.90
15707;DHT22;7953;54.302;10.128;2023-12-04T13:13:18;0.00;99.90
15707;DHT22;7953;54.302;10.128;2023-12-04T13:15:45;0.00;99.90
15707;DHT22;7953;54.302;10.128;2023-12-04T13:18:12;0.00;99.90
15707;DHT22;7953;54.302;10.128;2023-12-04T13:20:39;0.00;99.90
15707;DHT22;7953;54.302;10.128;2023-12-04T13:23:05;0.00;99.90
15707;DHT22;7953;54.302;10.128;2023-12-04T13:25:34;0.00;99.90
15707;DHT22;7953;54.302;10.128;2023-12-04T13:28:00;0.00;99.90
15707;DHT22;7953;54.302;10.128;2023-12-04T13:30:27;0.00;99.90
15707;DHT22;7953;54.302;10.128;2023-12-04T13:32:54;0.00;99.90
15707;DHT22;7953;54.302;10.128;2023-12-04T13:35:21;0.00;99.90
15707;DHT22;7953;54.302;10.128;2023-12-04T13:37:48;0.00;99.90
15707;DHT22;7953;54.302;10.128;2023-12-04T13:40:20;0.00;99.90
15707;DHT22;7953;54.302;10.128;2023-12-04T13:42:48;0.00;99.90
15707;DHT22;7953;54.302;10.128;2023-12-04T13:45:33;0.00;99.90
15707;DHT22;7953;54.302;10.128;2023-12-04T13:48:00;0.00;99.90
15707;DHT22;7953;54.302;10.128;2023-12-04T13:50:27;0.00;99.90
15707;DHT22;7953;54.302;10.128;2023-12-04T13:52:54;0.00;99.90
15707;DHT22;7953;54.302;10.128;2023-12-04T13:55:23;0.00;99.90
15707;DHT22;7953;54.302;10.128;2023-12-04T13:58:07;0.00;99.90
15707;DHT22;7953;54.302;10.128;2023-12-04T14:00:52;0.00;99.90
15707;DHT22;7953;54.302;10.128;2023-12-04T14:03:19;0.00;99.90
15707;DHT22;7953;54.302;10.128;2023-12-04T14:05:46;0.00;99.90
15707;DHT22;7953;54.302;10.128;2023-12-04T14:08:12;0.00;99.90
15707;DHT22;7953;54.302;10.128;2023-12-04T14:10:39;0.00;99.90
15707;DHT22;7953;54.302;10.128;2023-12-04T14:13:08;0.00;99.90
15707;DHT22;7953;54.302;10.128;2023-12-04T14:15:35;-0.10;99.90
15707;DHT22;7953;54.302;10.128;2023-12-04T14:18:02;-0.10;99.90
15707;DHT22;7953;54.302;10.128;2023-12-04T14:20:29;-0.10;99.90
15707;DHT22;7953;54.302;10.128;2023-12-04T14:22:56;-0.10;99.90
15707;DHT22;7953;54.302;10.128;2023-12-04T14:25:22;-0.10;99.90
15707;DHT22;7953;54.302;10.128;2023-12-04T14:27:49;-0.10;99.90
15707;DHT22;7953;54.302;10.128;2023-12-04T14:30:17;-0.10;99.90
15707;DHT22;7953;54.302;10.128;2023-12-04T14:32:45;-0.20;99.90
15707;DHT22;7953;54.302;10.128;2023-12-04T14:35:12;-0.20;99.90
15707;DHT22;7953;54.302;10.128;2023-12-04T14:37:39;-0.20;99.90
15707;DHT22;7953;54.302;10.128;2023-12-04T14:40:07;-0.20;99.90
15707;DHT22;7953;54.302;10.128;2023-12-04T14:42:34;-0.30;99.90
15707;DHT22;7953;54.302;10.128;2023-12-04T14:45:02;-0.30;99.90
15707;DHT22;7953;54.302;10.128;2023-12-04T14:47:30;-0.30;99.90
15707;DHT22;7953;54.302;10.128;2023-12-04T14:49:57;-0.30;99.90
15707;DHT22;7953;54.302;10.128;2023-12-04T14:52:23;-0.30;99.90
15707;DHT22;7953;54.302;10.128;2023-12-04T14:54:53;-0.40;99.90
15707;DHT22;7953;54.302;10.128;2023-12-04T14:57:44;-0.30;99.90
15707;DHT22;7953;54.302;10.128;2023-12-04T15:00:43;-0.30;99.90
15707;DHT22;7953;54.302;10.128;2023-12-04T15:03:34;-0.30;99.90
15707;DHT22;7953;54.302;10.128;2023-12-04T15:06:17;-0.40;99.90
15707;DHT22;7953;54.302;10.128;2023-12-04T15:09:05;-0.30;99.90
15707;DHT22;7953;54.302;10.128;2023-12-04T15:11:58;-0.40;99.90
15707;DHT22;7953;54.302;10.128;2023-12-04T15:14:46;-0.40;99.90
15707;DHT22;7953;54.302;10.128;2023-12-04T15:17:18;-0.40;99.90
15707;DHT22;7953;54.302;10.128;2023-12-04T15:19:56;-0.40;99.90
15707;DHT22;7953;54.302;10.128;2023-12-04T15:22:57;-0.40;99.90
15707;DHT22;7953;54.302;10.128;2023-12-04T15:25:23;-0.40;99.90
15707;DHT22;7953;54.302;10.128;2023-12-04T15:27:50;-0.40;99.90
15707;DHT22;7953;54.302;10.128;2023-12-04T15:30:16;-0.40;99.90
15707;DHT22;7953;54.302;10.128;2023-12-04T15:32:43;-0.40;99.90
15707;DHT22;7953;54.302;10.128;2023-12-04T15:35:10;-0.50;99.90
15707;DHT22;7953;54.302;10.128;2023-12-04T15:37:37;-0.50;99.90
15707;DHT22;7953;54.302;10.128;2023-12-04T15:40:04;-0.40;99.90
15707;DHT22;7953;54.302;10.128;2023-12-04T15:42:32;-0.50;99.90